Time;durP1;ratioP1;P1;durP2;ratioP2;P2;SDS_P1;SDS_P2;PMS_P1;PMS_P2;Temp;Humidity;BMP_temperature;BMP_pressure;BME280_temperature;BME280_humidity;BME280_pressure;Samples;Min_cycle;Max_cycle;Signal;HPM_P1;HPM_P2
2022/03/14 00:00:00;;;;;;;18.80;15.52;;;10.10;94.90;;;;;;4959698;28;89706;-33
2022/03/14 00:02:26;;;;;;;16.90;15.07;;;10.00;94.30;;;;;;4959262;28;89625;-33
2022/03/14 00:04:52;;;;;;;15.10;13.57;;;10.10;95.00;;;;;;4958661;28;89761;-35
2022/03/14 00:07:18;;;;;;;16.00;14.18;;;10.20;98.00;;;;;;4958960;28;90902;-34
2022/03/14 00:09:44;;;;;;;18.73;12.98;;;10.20;98.50;;;;;;4958749;28;89439;-32
2022/03/14 00:12:10;;;;;;;16.38;13.95;;;10.20;98.90;;;;;;4993798;22;89762;-33
2022/03/14 00:14:35;;;;;;;13.40;11.93;;;10.20;98.80;;;;;;4958945;28;88432;-35
2022/03/14 00:17:06;;;;;;;21.08;14.02;;;10.20;99.90;;;;;;4959744;28;88909;-31
2022/03/14 00:19:32;;;;;;;17.05;12.73;;;10.20;99.90;;;;;;4960036;28;89629;-33
2022/03/14 00:21:59;;;;;;;15.45;12.02;;;10.20;99.90;;;;;;4959524;28;90523;-33
2022/03/14 00:24:25;;;;;;;17.92;13.68;;;10.10;99.90;;;;;;4958977;28;89046;-35
2022/03/14 00:26:54;;;;;;;14.45;11.98;;;10.10;99.90;;;;;;4958353;28;89999;-32
2022/03/14 00:29:21;;;;;;;17.25;13.23;;;10.00;99.90;;;;;;4959098;28;89324;-36
2022/03/14 00:31:47;;;;;;;14.40;12.70;;;10.00;99.90;;;;;;4958770;28;90483;-32
2022/03/14 00:34:13;;;;;;;17.15;12.93;;;10.00;99.90;;;;;;4959195;28;88857;-37
2022/03/14 00:36:41;;;;;;;14.52;12.73;;;9.90;99.90;;;;;;4959131;28;90184;-33
2022/03/14 00:39:07;;;;;;;14.68;12.10;;;9.80;99.90;;;;;;4958723;28;91883;-32
2022/03/14 00:41:32;;;;;;;15.55;12.52;;;9.70;99.90;;;;;;4958883;28;89972;-32
2022/03/14 00:43:58;;;;;;;15.40;12.15;;;9.70;99.90;;;;;;4958961;28;87525;-31
2022/03/14 00:46:23;;;;;;;15.27;12.25;;;9.70;99.90;;;;;;4959075;28;90054;-32
2022/03/14 00:48:49;;;;;;;14.68;12.95;;;9.60;99.90;;;;;;4959205;28;90286;-33
2022/03/14 00:51:15;;;;;;;14.95;12.15;;;9.60;99.90;;;;;;4958527;28;89381;-34
2022/03/14 00:53:41;;;;;;;14.55;12.75;;;9.60;99.90;;;;;;4958554;28;89662;-32
2022/03/14 00:56:06;;;;;;;16.08;11.30;;;9.60;99.90;;;;;;4959121;28;91139;-32
2022/03/14 00:58:33;;;;;;;12.93;9.23;;;9.70;99.90;;;;;;4959306;28;89232;-35
2022/03/14 01:00:59;;;;;;;11.88;10.57;;;9.60;99.90;;;;;;4959435;28;88916;-34
2022/03/14 01:03:24;;;;;;;18.02;10.63;;;9.70;99.90;;;;;;4959095;28;89047;-32
2022/03/14 01:05:50;;;;;;;9.68;8.70;;;9.70;99.90;;;;;;4958524;28;90105;-37
2022/03/14 01:08:16;;;;;;;12.07;10.00;;;9.70;99.90;;;;;;4959875;28;89601;-32
2022/03/14 01:10:42;;;;;;;10.50;9.40;;;9.70;99.90;;;;;;4958678;28;90422;-32
2022/03/14 01:13:11;;;;;;;10.75;8.95;;;9.80;99.90;;;;;;4959541;28;88667;-37
2022/03/14 01:15:36;;;;;;;12.00;9.38;;;9.80;99.90;;;;;;4959301;28;90009;-32
2022/03/14 01:18:02;;;;;;;10.65;7.90;;;9.80;99.90;;;;;;4958904;28;91169;-34
2022/03/14 01:20:28;;;;;;;8.68;7.82;;;9.80;99.90;;;;;;4960010;28;89273;-33
2022/03/14 01:22:54;;;;;;;8.25;7.30;;;9.80;99.90;;;;;;4959280;28;87540;-34
2022/03/14 01:25:22;;;;;;;9.82;7.93;;;9.70;99.90;;;;;;4959296;28;90240;-33
2022/03/14 01:27:48;;;;;;;9.43;7.35;;;9.60;99.90;;;;;;4959210;28;89776;-32
2022/03/14 01:30:15;;;;;;;7.97;7.18;;;9.60;99.90;;;;;;4959239;28;90198;-34
2022/03/14 01:32:41;;;;;;;8.45;6.78;;;9.70;99.90;;;;;;4941615;28;90283;-32
2022/03/14 01:35:07;;;;;;;7.75;6.47;;;9.70;99.90;;;;;;4925791;28;90188;-33
2022/03/14 01:37:33;;;;;;;8.43;7.45;;;9.60;99.90;;;;;;4941784;28;91056;-35
2022/03/14 01:39:58;;;;;;;7.80;6.28;;;9.70;99.90;;;;;;4961345;28;89610;-33
2022/03/14 01:42:24;;;;;;;7.88;6.68;;;9.70;99.90;;;;;;4962146;28;90115;-31
2022/03/14 01:44:49;;;;;;;7.70;6.95;;;9.70;99.90;;;;;;4961886;28;90114;-32
2022/03/14 01:47:16;;;;;;;8.52;7.30;;;9.60;99.90;;;;;;4963207;28;89082;-34
2022/03/14 01:49:46;;;;;;;7.40;6.63;;;9.60;99.90;;;;;;4961331;28;89373;-34
2022/03/14 01:52:13;;;;;;;7.15;6.47;;;9.60;99.90;;;;;;4962029;28;89500;-31
2022/03/14 01:54:40;;;;;;;7.38;6.28;;;9.60;99.90;;;;;;4961652;28;90412;-35
2022/03/14 01:57:06;;;;;;;7.00;6.32;;;9.60;99.90;;;;;;4944878;28;89124;-33
2022/03/14 01:59:33;;;;;;;7.72;6.32;;;9.60;99.90;;;;;;4961108;28;88258;-33
2022/03/14 02:01:59;;;;;;;8.57;6.82;;;9.60;99.90;;;;;;4943572;28;88331;-33
2022/03/14 02:04:25;;;;;;;7.07;6.40;;;9.60;99.90;;;;;;4962282;28;90692;-31
2022/03/14 02:06:54;;;;;;;6.78;6.10;;;9.60;99.90;;;;;;4960708;28;90571;-32
2022/03/14 02:09:20;;;;;;;6.60;5.93;;;9.60;99.90;;;;;;4962360;28;90235;-32
2022/03/14 02:12:08;;;;;;;9.63;5.65;;;9.60;99.90;;;;;;4961492;28;89109;-34
2022/03/14 02:14:39;;;;;;;6.95;6.32;;;9.60;99.90;;;;;;4962188;28;91170;-35
2022/03/14 02:17:16;;;;;;;7.32;5.80;;;9.60;99.90;;;;;;4961431;28;90018;-34
2022/03/14 02:19:42;;;;;;;9.15;6.05;;;9.60;99.90;;;;;;4961740;28;89067;-34
2022/03/14 02:22:11;;;;;;;6.35;5.75;;;9.60;99.90;;;;;;4962339;28;89883;-35
2022/03/14 02:24:37;;;;;;;5.72;5.10;;;9.60;99.90;;;;;;4961463;28;90135;-35
2022/03/14 02:27:03;;;;;;;8.35;6.22;;;9.60;99.90;;;;;;4961210;28;89645;-36
2022/03/14 02:29:29;;;;;;;6.10;5.18;;;9.60;99.90;;;;;;4961854;28;89297;-35
2022/03/14 02:31:55;;;;;;;6.15;5.57;;;9.60;99.90;;;;;;4961103;28;90067;-32
2022/03/14 02:34:21;;;;;;;7.88;5.80;;;9.60;99.90;;;;;;4961986;28;90627;-33
2022/03/14 02:36:46;;;;;;;5.53;5.03;;;9.60;99.90;;;;;;4961142;28;89980;-32
2022/03/14 02:39:12;;;;;;;5.60;5.10;;;9.60;99.90;;;;;;4961407;28;89458;-31
2022/03/14 02:41:38;;;;;;;6.32;5.38;;;9.60;99.90;;;;;;4961661;28;88918;-32
2022/03/14 02:44:08;;;;;;;6.28;5.68;;;9.60;99.90;;;;;;4961190;28;90175;-32
2022/03/14 02:46:40;;;;;;;6.53;5.63;;;9.60;99.90;;;;;;4961228;28;90712;-33
2022/03/14 02:49:11;;;;;;;7.30;5.72;;;9.50;99.90;;;;;;4960823;28;89655;-34
2022/03/14 02:51:38;;;;;;;5.40;4.90;;;9.60;99.90;;;;;;4961468;28;88751;-31
2022/03/14 02:54:10;;;;;;;5.17;4.50;;;9.50;99.90;;;;;;4961422;28;89999;-35
2022/03/14 02:56:37;;;;;;;6.68;5.43;;;9.50;99.90;;;;;;4960919;28;90831;-34
2022/03/14 02:59:04;;;;;;;5.78;5.18;;;9.50;99.90;;;;;;4961070;28;90472;-35
2022/03/14 03:01:29;;;;;;;6.10;5.13;;;9.50;99.90;;;;;;4960625;28;88900;-37
2022/03/14 03:03:55;;;;;;;4.75;4.35;;;9.50;99.90;;;;;;4961154;28;90136;-32
2022/03/14 03:06:23;;;;;;;5.30;4.80;;;9.50;99.90;;;;;;4960426;28;89716;-31
2022/03/14 03:08:52;;;;;;;4.72;4.32;;;9.60;99.90;;;;;;4961291;28;89528;-34
2022/03/14 03:11:19;;;;;;;5.82;4.70;;;9.60;99.90;;;;;;4960896;28;89127;-32
2022/03/14 03:13:47;;;;;;;6.55;5.18;;;9.60;99.90;;;;;;4961079;28;90117;-33
2022/03/14 03:16:14;;;;;;;8.65;4.57;;;9.70;99.90;;;;;;4961064;28;89739;-34
2022/03/14 03:18:40;;;;;;;5.47;5.07;;;9.70;99.90;;;;;;4960455;28;89628;-32
2022/03/14 03:21:06;;;;;;;5.30;4.80;;;9.80;99.90;;;;;;4960763;28;88924;-34
2022/03/14 03:23:34;;;;;;;5.72;4.43;;;9.80;99.90;;;;;;4961134;28;89366;-33
2022/03/14 03:26:00;;;;;;;4.75;4.32;;;9.80;99.90;;;;;;4942716;28;92383;-32
2022/03/14 03:28:26;;;;;;;5.13;4.63;;;9.80;99.90;;;;;;4960748;28;89419;-35
2022/03/14 03:30:52;;;;;;;10.23;5.13;;;9.90;99.90;;;;;;4960797;28;89657;-31
2022/03/14 03:33:18;;;;;;;4.05;3.72;;;9.80;99.90;;;;;;4960238;28;91270;-33
2022/03/14 03:35:44;;;;;;;4.72;4.32;;;9.90;99.90;;;;;;4960658;28;89585;-31
2022/03/14 03:38:09;;;;;;;3.83;3.53;;;9.90;99.90;;;;;;4960429;28;88988;-35
2022/03/14 03:40:35;;;;;;;4.88;4.38;;;9.90;99.90;;;;;;4960698;28;89761;-32
2022/03/14 03:43:00;;;;;;;4.95;4.55;;;9.90;99.90;;;;;;4961007;28;90150;-33
2022/03/14 03:45:26;;;;;;;4.25;3.88;;;9.90;99.90;;;;;;4960073;28;91271;-33
2022/03/14 03:47:53;;;;;;;4.75;4.22;;;9.90;99.90;;;;;;4960881;28;90493;-34
2022/03/14 03:50:20;;;;;;;3.78;3.45;;;9.90;99.90;;;;;;4960644;28;88823;-32
2022/03/14 03:52:45;;;;;;;4.60;4.20;;;9.90;99.90;;;;;;4959897;28;90292;-35
2022/03/14 03:55:11;;;;;;;6.57;3.60;;;9.90;99.90;;;;;;4961056;28;89623;-33
2022/03/14 03:57:37;;;;;;;5.95;4.68;;;9.90;99.90;;;;;;4960339;28;89037;-31
2022/03/14 04:00:04;;;;;;;3.97;3.67;;;9.90;99.90;;;;;;4958541;28;88582;-31
2022/03/14 04:02:35;;;;;;;3.67;3.30;;;9.90;99.90;;;;;;4959850;28;91755;-35
2022/03/14 04:05:02;;;;;;;3.90;3.60;;;9.90;99.90;;;;;;4960488;28;90124;-34
2022/03/14 04:07:27;;;;;;;3.58;3.28;;;9.90;99.90;;;;;;4959793;28;89317;-33
2022/03/14 04:09:56;;;;;;;4.22;3.85;;;9.90;99.90;;;;;;4960389;28;89006;-32
2022/03/14 04:12:28;;;;;;;7.30;3.92;;;9.90;99.90;;;;;;4960005;28;90150;-33
2022/03/14 04:14:56;;;;;;;3.85;3.50;;;9.90;99.90;;;;;;4959583;28;89630;-35
2022/03/14 04:17:25;;;;;;;5.22;4.72;;;9.90;99.90;;;;;;4960025;28;90226;-36
2022/03/14 04:19:52;;;;;;;5.07;4.68;;;9.80;99.90;;;;;;4960085;28;88091;-32
2022/03/14 04:22:21;;;;;;;5.80;4.90;;;9.80;99.90;;;;;;4959874;28;92181;-32
2022/03/14 04:24:47;;;;;;;5.80;4.80;;;9.70;99.90;;;;;;4959719;28;88159;-34
2022/03/14 04:27:12;;;;;;;5.28;4.70;;;9.70;99.90;;;;;;4960040;28;90066;-36
2022/03/14 04:29:38;;;;;;;5.88;4.43;;;9.60;99.90;;;;;;4960110;28;88521;-32
2022/03/14 04:32:04;;;;;;;5.35;4.72;;;9.60;99.90;;;;;;4959681;28;91112;-32
2022/03/14 04:34:30;;;;;;;4.85;4.35;;;9.50;99.90;;;;;;4959803;28;92158;-31
2022/03/14 04:36:56;;;;;;;5.15;4.55;;;9.50;99.90;;;;;;4959108;28;91899;-32
2022/03/14 04:39:21;;;;;;;4.97;4.47;;;9.50;99.90;;;;;;4959741;28;89740;-35
2022/03/14 04:41:47;;;;;;;4.93;4.53;;;9.40;99.90;;;;;;4959500;28;90323;-32
2022/03/14 04:44:13;;;;;;;5.85;5.20;;;9.40;99.90;;;;;;4959627;28;89756;-32
2022/03/14 04:46:39;;;;;;;6.60;4.90;;;9.40;99.90;;;;;;4960290;28;90091;-34
2022/03/14 04:49:05;;;;;;;6.35;5.72;;;9.40;99.90;;;;;;4959745;28;88138;-33
2022/03/14 04:51:32;;;;;;;5.22;4.72;;;9.40;99.90;;;;;;4959591;28;90448;-32
2022/03/14 04:53:57;;;;;;;6.97;4.60;;;9.30;99.90;;;;;;4959381;28;89747;-34
2022/03/14 04:56:23;;;;;;;5.43;5.03;;;9.30;99.90;;;;;;4959862;28;90336;-33
2022/03/14 04:58:49;;;;;;;6.82;5.43;;;9.30;99.90;;;;;;4959614;28;90285;-33
2022/03/14 05:01:15;;;;;;;5.72;5.20;;;9.30;99.90;;;;;;4959727;28;90231;-33
2022/03/14 05:03:40;;;;;;;5.18;4.57;;;9.30;99.90;;;;;;4958677;28;89703;-36
2022/03/14 05:06:06;;;;;;;6.13;4.88;;;9.30;99.90;;;;;;4959804;28;90315;-32
2022/03/14 05:08:32;;;;;;;6.57;5.22;;;9.30;99.90;;;;;;4959266;28;89203;-31
2022/03/14 05:10:58;;;;;;;6.00;5.25;;;9.30;99.90;;;;;;4959761;28;90188;-36
2022/03/14 05:13:24;;;;;;;6.85;5.93;;;9.20;99.90;;;;;;4962980;28;89512;-33
2022/03/14 05:15:49;;;;;;;6.15;5.13;;;9.20;99.90;;;;;;4962352;28;89260;-34
2022/03/14 05:18:15;;;;;;;4.97;4.47;;;9.20;99.90;;;;;;4963271;28;89876;-34
2022/03/14 05:20:41;;;;;;;5.85;5.30;;;9.20;99.90;;;;;;4962214;28;90111;-32
2022/03/14 05:23:07;;;;;;;5.05;4.60;;;9.20;99.90;;;;;;4962437;28;90497;-31
2022/03/14 05:25:32;;;;;;;5.22;4.70;;;9.20;99.90;;;;;;4962096;28;90959;-34
2022/03/14 05:27:58;;;;;;;5.05;4.65;;;9.30;99.90;;;;;;4962674;28;87604;-33
2022/03/14 05:30:24;;;;;;;6.40;4.90;;;9.30;99.90;;;;;;4962763;28;90676;-32
2022/03/14 05:32:50;;;;;;;6.35;5.32;;;9.30;99.90;;;;;;4961731;28;89971;-34
2022/03/14 05:35:16;;;;;;;7.47;5.25;;;9.30;99.90;;;;;;4963108;28;89569;-35
2022/03/14 05:37:46;;;;;;;5.70;5.10;;;9.30;99.90;;;;;;4962267;28;89006;-33
2022/03/14 05:40:15;;;;;;;5.93;5.20;;;9.30;99.90;;;;;;4962874;28;90122;-32
2022/03/14 05:42:47;;;;;;;5.65;5.15;;;9.30;99.90;;;;;;4961708;28;89488;-33
2022/03/14 05:45:15;;;;;;;5.90;5.40;;;9.30;99.90;;;;;;4963368;28;89602;-34
2022/03/14 05:47:41;;;;;;;5.33;4.80;;;9.30;99.90;;;;;;4962517;28;89088;-33
2022/03/14 05:50:07;;;;;;;5.72;4.97;;;9.30;99.90;;;;;;4962218;28;90618;-36
2022/03/14 05:52:33;;;;;;;6.05;5.47;;;9.30;99.90;;;;;;4962365;28;91411;-31
2022/03/14 05:54:59;;;;;;;5.63;5.03;;;9.30;99.90;;;;;;4962122;28;89621;-32
2022/03/14 05:57:25;;;;;;;6.10;5.60;;;9.20;99.90;;;;;;4963020;28;90238;-33
2022/03/14 05:59:50;;;;;;;6.00;5.50;;;9.20;99.90;;;;;;4962166;28;89857;-32
2022/03/14 06:02:21;;;;;;;6.35;5.75;;;9.20;99.90;;;;;;4962010;28;89759;-31
2022/03/14 06:04:47;;;;;;;7.05;6.25;;;9.20;99.90;;;;;;4961965;28;90403;-32
2022/03/14 06:07:13;;;;;;;8.88;5.82;;;9.20;99.90;;;;;;4962539;28;89380;-32
2022/03/14 06:09:38;;;;;;;7.78;6.03;;;9.20;99.90;;;;;;4961820;28;90171;-31
2022/03/14 06:12:05;;;;;;;6.93;6.32;;;9.20;99.90;;;;;;4961175;28;90466;-36
2022/03/14 06:14:30;;;;;;;5.68;5.20;;;9.10;99.90;;;;;;4961688;28;90210;-31
2022/03/14 06:16:56;;;;;;;6.63;5.95;;;9.10;99.90;;;;;;4961268;28;88061;-32
2022/03/14 06:19:21;;;;;;;6.38;5.78;;;9.10;99.90;;;;;;4961868;28;90237;-34
2022/03/14 06:21:47;;;;;;;7.47;6.57;;;9.10;99.90;;;;;;4961291;28;89370;-33
2022/03/14 06:24:13;;;;;;;5.95;5.38;;;9.00;99.90;;;;;;4961562;28;88939;-36
2022/03/14 06:26:38;;;;;;;6.82;6.15;;;9.10;99.90;;;;;;4961773;28;89695;-31
2022/03/14 06:29:04;;;;;;;5.90;5.25;;;9.00;99.90;;;;;;4943831;28;90150;-32
2022/03/14 06:31:33;;;;;;;9.85;6.90;;;9.00;99.90;;;;;;4961834;28;89779;-31
2022/03/14 06:33:59;;;;;;;7.55;5.97;;;9.00;99.90;;;;;;4961439;28;89525;-34
2022/03/14 06:36:27;;;;;;;8.75;6.07;;;9.00;99.90;;;;;;4961079;28;88697;-33
2022/03/14 06:38:53;;;;;;;7.07;6.40;;;8.90;99.90;;;;;;4961266;28;90525;-35
2022/03/14 06:41:19;;;;;;;12.73;7.15;;;8.90;99.90;;;;;;4962312;28;88988;-32
2022/03/14 06:43:45;;;;;;;7.88;7.18;;;8.90;99.90;;;;;;4960858;28;89611;-30
2022/03/14 06:46:10;;;;;;;6.05;5.53;;;8.90;99.90;;;;;;4962068;28;89457;-32
2022/03/14 06:48:40;;;;;;;7.05;6.35;;;8.90;99.90;;;;;;4961029;28;89173;-34
2022/03/14 06:51:06;;;;;;;10.90;6.60;;;8.90;99.90;;;;;;4960811;28;90120;-31
2022/03/14 06:53:32;;;;;;;7.60;6.82;;;8.90;99.90;;;;;;4961179;28;89770;-31
2022/03/14 06:55:57;;;;;;;6.75;6.05;;;8.90;99.90;;;;;;4961457;28;87809;-33
2022/03/14 06:58:23;;;;;;;7.65;6.85;;;8.90;99.90;;;;;;4961055;28;90426;-32
2022/03/14 07:00:49;;;;;;;7.85;7.05;;;8.90;99.90;;;;;;4960677;28;90715;-33
2022/03/14 07:03:15;;;;;;;8.35;6.63;;;8.90;99.90;;;;;;4926740;28;90676;-32
2022/03/14 07:05:40;;;;;;;7.30;6.60;;;8.90;99.90;;;;;;4961308;28;88945;-32
2022/03/14 07:08:06;;;;;;;7.85;6.82;;;8.90;99.90;;;;;;4961399;28;89236;-33
2022/03/14 07:10:32;;;;;;;8.43;7.00;;;8.90;99.90;;;;;;4961251;28;89686;-34
2022/03/14 07:12:57;;;;;;;9.93;7.60;;;8.90;99.90;;;;;;4960765;28;89661;-32
2022/03/14 07:15:25;;;;;;;8.30;6.88;;;8.90;99.90;;;;;;4960902;28;88962;-34
2022/03/14 07:17:51;;;;;;;9.63;7.97;;;8.90;99.90;;;;;;4960979;28;89576;-31
2022/03/14 07:20:18;;;;;;;7.82;7.03;;;8.90;99.90;;;;;;4961241;28;89674;-33
2022/03/14 07:22:52;;;;;;;8.15;7.35;;;8.90;99.90;;;;;;4960233;28;89499;-33
2022/03/14 07:25:23;;;;;;;8.60;7.80;;;8.90;99.90;;;;;;4959552;28;90125;-32
2022/03/14 07:27:49;;;;;;;8.27;7.35;;;9.00;99.90;;;;;;4960344;28;89828;-34
2022/03/14 07:30:15;;;;;;;10.05;8.05;;;9.00;99.90;;;;;;4960951;28;89655;-33
2022/03/14 07:32:41;;;;;;;10.27;8.60;;;9.00;99.90;;;;;;4958532;28;89608;-35
2022/03/14 07:35:07;;;;;;;9.88;7.55;;;8.90;99.90;;;;;;4976411;28;87952;-32
2022/03/14 07:37:32;;;;;;;9.30;7.90;;;8.90;99.90;;;;;;4978561;28;90391;-33
2022/03/14 07:39:58;;;;;;;10.25;9.18;;;8.90;99.90;;;;;;4966126;28;90204;-32
2022/03/14 07:42:24;;;;;;;10.07;8.40;;;9.00;99.90;;;;;;4958834;28;89335;-32
2022/03/14 07:44:50;;;;;;;9.25;7.85;;;9.00;99.90;;;;;;4958187;28;89701;-32
2022/03/14 07:47:15;;;;;;;9.20;8.18;;;9.00;99.90;;;;;;4958750;28;89882;-31
2022/03/14 07:49:41;;;;;;;9.80;8.90;;;9.00;99.90;;;;;;4957725;28;89367;-34
2022/03/14 07:52:07;;;;;;;9.07;7.90;;;9.00;99.90;;;;;;4958942;28;91222;-33
2022/03/14 07:54:33;;;;;;;9.90;8.82;;;9.10;99.90;;;;;;4958755;28;89482;-34
2022/03/14 07:56:59;;;;;;;11.77;9.80;;;9.10;99.90;;;;;;4958207;28;89691;-33
2022/03/14 07:59:24;;;;;;;9.27;8.25;;;9.10;99.90;;;;;;4958790;28;89975;-33
2022/03/14 08:01:50;;;;;;;10.35;8.30;;;9.10;99.90;;;;;;4956779;28;89692;-33
2022/03/14 08:04:15;;;;;;;11.60;9.13;;;9.10;99.90;;;;;;4958556;28;88495;-31
2022/03/14 08:06:42;;;;;;;12.35;9.32;;;9.10;99.90;;;;;;4957753;28;90421;-34
2022/03/14 08:09:11;;;;;;;10.77;9.73;;;9.10;99.90;;;;;;4958074;28;88724;-33
2022/03/14 08:11:38;;;;;;;11.15;9.95;;;9.10;99.90;;;;;;4958043;28;89615;-33
2022/03/14 08:14:07;;;;;;;12.10;10.90;;;9.10;99.90;;;;;;4956750;28;90023;-32
2022/03/14 08:16:33;;;;;;;11.02;9.85;;;9.10;99.90;;;;;;4957760;28;90085;-31
2022/03/14 08:18:59;;;;;;;11.15;10.02;;;9.20;99.90;;;;;;4957539;28;89760;-34
2022/03/14 08:21:24;;;;;;;12.43;10.77;;;9.20;99.90;;;;;;4957372;28;89424;-31
2022/03/14 08:23:50;;;;;;;13.68;11.35;;;9.20;99.90;;;;;;4957607;28;90042;-32
2022/03/14 08:26:17;;;;;;;12.23;11.02;;;9.20;99.90;;;;;;4957160;28;90393;-36
2022/03/14 08:28:44;;;;;;;14.40;11.18;;;9.20;99.90;;;;;;4956742;28;90477;-32
2022/03/14 08:31:11;;;;;;;10.85;9.50;;;9.20;99.90;;;;;;4957653;28;89337;-33
2022/03/14 08:33:41;;;;;;;13.95;11.75;;;9.30;99.90;;;;;;4957371;28;89481;-34
2022/03/14 08:36:07;;;;;;;11.85;10.73;;;9.30;99.90;;;;;;4956862;28;91644;-33
2022/03/14 08:38:33;;;;;;;12.75;11.55;;;9.30;99.90;;;;;;4939275;28;90350;-35
2022/03/14 08:40:59;;;;;;;12.90;11.45;;;9.30;99.90;;;;;;4956810;28;90764;-33
2022/03/14 08:43:24;;;;;;;12.38;11.10;;;9.30;99.90;;;;;;4956979;28;89725;-37
2022/03/14 08:45:50;;;;;;;14.60;13.10;;;9.30;99.90;;;;;;4956972;28;90088;-31
2022/03/14 08:48:16;;;;;;;13.75;12.20;;;9.20;99.90;;;;;;4956929;28;89687;-33
2022/03/14 08:50:42;;;;;;;14.05;12.45;;;9.20;99.90;;;;;;4956935;28;89614;-31
2022/03/14 08:53:08;;;;;;;14.40;11.82;;;9.20;99.90;;;;;;4957230;28;88163;-32
2022/03/14 08:55:34;;;;;;;12.48;11.07;;;9.30;99.90;;;;;;4956833;28;89099;-35
2022/03/14 08:58:00;;;;;;;13.38;11.95;;;9.20;99.90;;;;;;4957592;28;89408;-33
2022/03/14 09:00:27;;;;;;;14.90;11.45;;;9.20;99.90;;;;;;4956465;28;90612;-32
2022/03/14 09:02:54;;;;;;;14.40;11.88;;;9.30;99.90;;;;;;4956439;28;90289;-36
2022/03/14 09:05:20;;;;;;;13.60;11.85;;;9.30;99.90;;;;;;4956978;28;89914;-32
2022/03/14 09:07:46;;;;;;;13.18;11.70;;;9.30;99.90;;;;;;4955977;28;88732;-34
2022/03/14 09:10:13;;;;;;;14.80;12.23;;;9.30;99.90;;;;;;4956741;28;89723;-35
2022/03/14 09:12:39;;;;;;;14.52;11.68;;;9.40;99.90;;;;;;4956101;28;89300;-32
2022/03/14 09:15:09;;;;;;;13.45;11.35;;;9.40;99.90;;;;;;4956284;28;90410;-34
2022/03/14 09:17:44;;;;;;;14.93;13.35;;;9.40;99.90;;;;;;4956582;28;89719;-33
2022/03/14 09:20:13;;;;;;;13.15;11.95;;;9.40;99.90;;;;;;4956678;28;89389;-32
2022/03/14 09:22:40;;;;;;;13.40;12.07;;;9.40;99.90;;;;;;4956393;28;89457;-34
2022/03/14 09:25:06;;;;;;;11.68;10.65;;;9.40;99.90;;;;;;4956877;28;91813;-34
2022/03/14 09:27:32;;;;;;;15.43;11.93;;;9.40;99.90;;;;;;4955761;28;90290;-31
2022/03/14 09:29:57;;;;;;;13.88;11.57;;;9.40;99.90;;;;;;4956768;28;90104;-33
2022/03/14 09:32:23;;;;;;;12.68;11.35;;;9.40;99.90;;;;;;4956457;28;88482;-33
2022/03/14 09:34:48;;;;;;;17.80;12.40;;;9.40;99.90;;;;;;4956601;28;90155;-31
2022/03/14 09:37:15;;;;;;;14.75;12.63;;;9.40;99.90;;;;;;4956554;28;89845;-31
2022/03/14 09:39:40;;;;;;;12.90;11.65;;;9.40;99.90;;;;;;4956153;28;89842;-34
2022/03/14 09:42:09;;;;;;;11.40;10.23;;;9.40;99.90;;;;;;4957063;28;89253;-33
2022/03/14 09:44:35;;;;;;;12.73;11.48;;;9.30;99.90;;;;;;4938906;28;92503;-36
2022/03/14 09:47:01;;;;;;;15.43;12.80;;;9.30;99.90;;;;;;4956195;28;89704;-31
2022/03/14 09:49:30;;;;;;;14.25;11.48;;;9.40;99.90;;;;;;4956944;28;89666;-33
2022/03/14 09:51:56;;;;;;;15.95;13.32;;;9.30;99.90;;;;;;4956538;28;89138;-33
2022/03/14 09:54:21;;;;;;;14.68;13.18;;;9.40;99.90;;;;;;4956260;28;90441;-34
2022/03/14 09:56:48;;;;;;;15.05;13.20;;;9.40;99.90;;;;;;4956091;28;89516;-35
2022/03/14 09:59:13;;;;;;;14.40;12.82;;;9.30;99.90;;;;;;4958278;28;90762;-31
2022/03/14 10:01:40;;;;;;;14.35;12.90;;;9.30;99.90;;;;;;4959181;28;88292;-32
2022/03/14 10:04:08;;;;;;;15.05;12.30;;;9.20;99.90;;;;;;4959814;28;90578;-31
2022/03/14 10:06:35;;;;;;;14.07;12.50;;;9.20;99.90;;;;;;4959450;28;89604;-33
2022/03/14 10:09:02;;;;;;;16.20;12.95;;;9.20;99.90;;;;;;4959158;28;90756;-32
2022/03/14 10:11:28;;;;;;;13.38;11.50;;;9.10;99.90;;;;;;4959375;28;89023;-36
2022/03/14 10:13:54;;;;;;;14.95;13.27;;;9.10;99.90;;;;;;4959072;28;90369;-35
2022/03/14 10:16:20;;;;;;;14.65;12.25;;;9.20;99.90;;;;;;4958877;28;90666;-33
2022/03/14 10:18:54;;;;;;;14.15;11.95;;;9.10;99.90;;;;;;4958828;28;90842;-34
2022/03/14 10:21:33;;;;;;;15.52;13.80;;;9.10;99.90;;;;;;4959125;28;89255;-34
2022/03/14 10:24:07;;;;;;;17.70;14.23;;;9.20;99.90;;;;;;4958583;28;89917;-34
2022/03/14 10:26:34;;;;;;;18.20;15.20;;;9.20;99.90;;;;;;4959291;28;89521;-36
2022/03/14 10:29:03;;;;;;;18.67;14.52;;;9.20;99.90;;;;;;4959772;28;89887;-33
2022/03/14 10:31:31;;;;;;;17.83;14.73;;;9.20;99.90;;;;;;4959307;28;88106;-33
2022/03/14 10:34:04;;;;;;;17.13;15.35;;;9.10;99.90;;;;;;4958321;28;90297;-34
2022/03/14 10:36:51;;;;;;;20.30;16.10;;;9.10;99.90;;;;;;4958997;28;90117;-35
2022/03/14 10:39:28;;;;;;;18.33;16.25;;;9.10;99.90;;;;;;4958945;28;89030;-32
2022/03/14 10:42:11;;;;;;;15.75;13.88;;;9.10;99.90;;;;;;4958351;28;89292;-35
2022/03/14 10:44:41;;;;;;;17.17;13.20;;;9.10;99.90;;;;;;4958413;28;90206;-32
2022/03/14 10:47:10;;;;;;;20.05;14.55;;;9.20;99.90;;;;;;4959081;28;89887;-34
2022/03/14 10:49:37;;;;;;;18.10;15.18;;;9.20;99.90;;;;;;4958531;28;89770;-31
2022/03/14 10:52:10;;;;;;;17.83;13.40;;;9.20;99.90;;;;;;4959257;28;88019;-32
2022/03/14 10:54:37;;;;;;;22.70;15.25;;;9.30;99.90;;;;;;4958298;28;90075;-32
2022/03/14 10:57:18;;;;;;;17.05;14.38;;;9.40;99.90;;;;;;4958888;28;89959;-31
2022/03/14 10:59:45;;;;;;;19.88;15.35;;;9.40;99.90;;;;;;4958606;28;89287;-31
2022/03/14 11:02:20;;;;;;;23.63;17.42;;;9.40;99.90;;;;;;4958983;28;89874;-33
2022/03/14 11:04:52;;;;;;;21.38;17.88;;;9.50;99.90;;;;;;4957606;28;90619;-33
2022/03/14 11:07:20;;;;;;;21.35;16.33;;;9.50;99.90;;;;;;4958009;28;92560;-33
2022/03/14 11:09:46;;;;;;;24.02;16.70;;;9.50;99.90;;;;;;4957382;28;89469;-36
2022/03/14 11:12:15;;;;;;;21.90;14.95;;;9.50;99.90;;;;;;4958558;28;88505;-31
2022/03/14 11:14:40;;;;;;;;;;;9.60;99.90;;;;;;4958237;28;90198;-34
2022/03/14 11:17:26;;;;;;;23.90;16.27;;;9.50;99.90;;;;;;4960392;28;89977;-32
2022/03/14 11:19:52;;;;;;;23.75;15.95;;;9.60;99.90;;;;;;4957693;28;88979;-32
2022/03/14 11:22:20;;;;;;;25.13;16.85;;;9.60;99.90;;;;;;4958617;28;89083;-33
2022/03/14 11:24:51;;;;;;;20.60;15.55;;;9.70;99.90;;;;;;4958026;28;90141;-32
2022/03/14 11:27:22;;;;;;;22.02;15.18;;;9.70;99.90;;;;;;4958842;28;89597;-32
2022/03/14 11:29:50;;;;;;;18.15;15.15;;;9.70;99.90;;;;;;4958663;28;89672;-33
2022/03/14 11:32:17;;;;;;;22.37;15.37;;;9.70;99.90;;;;;;4958581;28;88990;-31
2022/03/14 11:34:45;;;;;;;20.08;15.55;;;9.80;99.90;;;;;;4957385;28;90991;-31
2022/03/14 11:37:12;;;;;;;23.02;16.00;;;9.80;99.90;;;;;;4957509;28;89807;-33
2022/03/14 11:39:38;;;;;;;27.75;15.82;;;9.80;99.90;;;;;;4957851;28;89155;-33
2022/03/14 11:42:05;;;;;;;26.55;15.10;;;9.80;99.90;;;;;;4958577;28;89254;-32
2022/03/14 11:44:31;;;;;;;22.15;13.43;;;9.90;99.90;;;;;;4957569;28;91709;-33
2022/03/14 11:46:58;;;;;;;21.30;16.27;;;9.90;99.90;;;;;;4957721;28;90450;-32
2022/03/14 11:49:27;;;;;;;24.15;15.52;;;9.90;99.90;;;;;;4958158;28;89473;-33
2022/03/14 11:52:06;;;;;;;19.35;14.02;;;9.90;99.90;;;;;;4957852;28;87886;-34
2022/03/14 11:54:41;;;;;;;18.77;12.13;;;9.80;99.90;;;;;;4957699;28;90097;-33
2022/03/14 11:57:07;;;;;;;24.90;15.55;;;9.80;99.90;;;;;;4956727;28;90772;-35
2022/03/14 11:59:35;;;;;;;20.50;13.95;;;9.80;99.90;;;;;;4957981;28;90529;-35
2022/03/14 12:02:03;;;;;;;24.20;15.43;;;9.80;99.90;;;;;;4958307;28;89000;-34
2022/03/14 12:04:37;;;;;;;22.58;14.15;;;9.80;99.90;;;;;;4957216;28;90404;-32
2022/03/14 12:07:05;;;;;;;18.70;13.85;;;9.70;99.90;;;;;;4958152;28;89773;-31
2022/03/14 12:09:31;;;;;;;;;;;9.70;99.90;;;;;;4957835;28;89526;-31
2022/03/14 12:12:05;;;;;;;14.98;11.98;;;9.70;99.90;;;;;;4981706;22;89950;-32
2022/03/14 12:14:47;;;;;;;15.18;10.25;;;9.80;99.90;;;;;;4938843;28;90095;-30
2022/03/14 12:17:13;;;;;;;17.70;11.05;;;9.80;99.90;;;;;;4938342;28;89569;-36
2022/03/14 12:19:50;;;;;;;14.32;9.35;;;9.80;99.90;;;;;;4938428;28;89873;-30
2022/03/14 12:22:30;;;;;;;17.20;9.45;;;9.80;99.90;;;;;;4937271;28;90330;-34
2022/03/14 12:24:57;;;;;;;10.38;8.75;;;9.90;99.90;;;;;;4938252;28;91911;-35
2022/03/14 12:27:33;;;;;;;17.60;9.93;;;9.90;99.90;;;;;;4938159;28;88953;-41
2022/03/14 12:30:00;;;;;;;14.82;8.25;;;10.00;99.90;;;;;;4938365;28;89410;-41
2022/03/14 12:32:29;;;;;;;15.65;8.85;;;10.00;99.90;;;;;;4938799;28;89773;-35
2022/03/14 12:35:05;;;;;;;;;;;10.10;99.90;;;;;;4938278;28;91621;-36
2022/03/14 12:37:44;;;;;;;12.85;9.38;;;10.10;99.90;;;;;;4939258;28;89606;-42
2022/03/14 12:40:34;;;;;;;14.85;9.90;;;10.20;99.90;;;;;;4938308;28;89463;-40
2022/03/14 12:43:11;;;;;;;15.77;9.25;;;10.20;99.90;;;;;;4938078;28;89407;-40
2022/03/14 12:45:39;;;;;;;20.80;11.18;;;10.30;99.90;;;;;;4938009;28;89565;-40
2022/03/14 12:48:21;;;;;;;14.85;10.10;;;10.40;99.90;;;;;;4936590;28;90860;-39